sensor_id;sensor_type;location;lat;lon;timestamp;temperature;humidity
21590;DHT22;10957;50.968;6.828;2022-11-15T00:04:49;9.70;99.90
21590;DHT22;10957;50.968;6.828;2022-11-15T00:10:08;9.90;99.90
21590;DHT22;10957;50.968;6.828;2022-11-15T00:15:28;10.20;99.90
21590;DHT22;10957;50.968;6.828;2022-11-15T00:20:47;9.80;99.90
21590;DHT22;10957;50.968;6.828;2022-11-15T00:26:07;10.20;99.90
21590;DHT22;10957;50.968;6.828;2022-11-15T00:31:29;9.90;99.90
21590;DHT22;10957;50.968;6.828;2022-11-15T00:36:48;10.30;99.90
21590;DHT22;10957;50.968;6.828;2022-11-15T00:42:08;9.90;99.90
21590;DHT22;10957;50.968;6.828;2022-11-15T00:47:28;10.50;99.90
21590;DHT22;10957;50.968;6.828;2022-11-15T00:52:47;9.90;99.90
21590;DHT22;10957;50.968;6.828;2022-11-15T00:58:06;10.20;99.90
21590;DHT22;10957;50.968;6.828;2022-11-15T01:03:25;10.20;99.90
21590;DHT22;10957;50.968;6.828;2022-11-15T01:08:44;10.60;99.90
21590;DHT22;10957;50.968;6.828;2022-11-15T01:14:04;10.80;99.90
21590;DHT22;10957;50.968;6.828;2022-11-15T01:19:23;10.10;99.90
21590;DHT22;10957;50.968;6.828;2022-11-15T01:24:42;10.70;99.90
21590;DHT22;10957;50.968;6.828;2022-11-15T01:30:01;10.50;99.90
21590;DHT22;10957;50.968;6.828;2022-11-15T01:35:20;10.40;99.90
21590;DHT22;10957;50.968;6.828;2022-11-15T01:40:40;10.90;99.90
21590;DHT22;10957;50.968;6.828;2022-11-15T01:51:40;10.70;99.90
21590;DHT22;10957;50.968;6.828;2022-11-15T01:57:02;10.90;99.90
21590;DHT22;10957;50.968;6.828;2022-11-15T02:02:23;10.90;99.90
21590;DHT22;10957;50.968;6.828;2022-11-15T02:07:43;10.50;99.90
21590;DHT22;10957;50.968;6.828;2022-11-15T02:13:03;10.50;99.90
21590;DHT22;10957;50.968;6.828;2022-11-15T02:18:27;10.90;99.90
21590;DHT22;10957;50.968;6.828;2022-11-15T02:24:26;10.70;99.90
21590;DHT22;10957;50.968;6.828;2022-11-15T02:35:48;11.50;99.90
21590;DHT22;10957;50.968;6.828;2022-11-15T02:41:18;11.50;99.90
21590;DHT22;10957;50.968;6.828;2022-11-15T02:46:44;11.40;99.90
21590;DHT22;10957;50.968;6.828;2022-11-15T02:52:24;11.40;99.90
21590;DHT22;10957;50.968;6.828;2022-11-15T02:58:06;11.30;99.90
21590;DHT22;10957;50.968;6.828;2022-11-15T03:09:35;11.40;99.90
21590;DHT22;10957;50.968;6.828;2022-11-15T03:15:29;11.20;99.90
21590;DHT22;10957;50.968;6.828;2022-11-15T03:20:50;11.30;99.90
21590;DHT22;10957;50.968;6.828;2022-11-15T03:26:12;10.90;99.90
21590;DHT22;10957;50.968;6.828;2022-11-15T03:31:35;11.20;99.90
21590;DHT22;10957;50.968;6.828;2022-11-15T03:37:08;11.20;99.90
21590;DHT22;10957;50.968;6.828;2022-11-15T03:48:05;11.20;99.90
21590;DHT22;10957;50.968;6.828;2022-11-15T03:53:28;11.50;99.90
21590;DHT22;10957;50.968;6.828;2022-11-15T03:58:47;10.90;99.90
21590;DHT22;10957;50.968;6.828;2022-11-15T04:04:07;11.10;99.90
21590;DHT22;10957;50.968;6.828;2022-11-15T04:09:26;11.60;99.90
21590;DHT22;10957;50.968;6.828;2022-11-15T04:14:45;11.50;99.90
21590;DHT22;10957;50.968;6.828;2022-11-15T04:20:27;11.50;99.90
21590;DHT22;10957;50.968;6.828;2022-11-15T04:26:15;11.80;99.90
21590;DHT22;10957;50.968;6.828;2022-11-15T04:31:35;11.90;99.90
21590;DHT22;10957;50.968;6.828;2022-11-15T04:36:55;11.30;99.90
21590;DHT22;10957;50.968;6.828;2022-11-15T04:42:32;11.20;99.90
21590;DHT22;10957;50.968;6.828;2022-11-15T04:47:52;11.30;99.90
21590;DHT22;10957;50.968;6.828;2022-11-15T04:53:11;11.40;99.90
21590;DHT22;10957;50.968;6.828;2022-11-15T04:58:30;11.30;99.90
21590;DHT22;10957;50.968;6.828;2022-11-15T05:03:49;11.90;99.90
21590;DHT22;10957;50.968;6.828;2022-11-15T05:09:27;11.70;99.90
21590;DHT22;10957;50.968;6.828;2022-11-15T05:14:46;11.80;99.90
21590;DHT22;10957;50.968;6.828;2022-11-15T05:20:07;11.40;99.90
21590;DHT22;10957;50.968;6.828;2022-11-15T05:25:26;11.90;99.90
21590;DHT22;10957;50.968;6.828;2022-11-15T05:30:46;12.00;99.90
21590;DHT22;10957;50.968;6.828;2022-11-15T05:36:29;11.80;99.90
21590;DHT22;10957;50.968;6.828;2022-11-15T05:41:53;11.60;99.90
21590;DHT22;10957;50.968;6.828;2022-11-15T05:47:19;11.70;99.90
21590;DHT22;10957;50.968;6.828;2022-11-15T05:52:40;11.70;99.90
21590;DHT22;10957;50.968;6.828;2022-11-15T05:58:00;11.30;99.90
21590;DHT22;10957;50.968;6.828;2022-11-15T06:03:20;11.50;99.90
21590;DHT22;10957;50.968;6.828;2022-11-15T06:08:41;10.70;99.90
21590;DHT22;10957;50.968;6.828;2022-11-15T06:14:00;10.50;99.90
21590;DHT22;10957;50.968;6.828;2022-11-15T06:19:21;11.00;99.90
21590;DHT22;10957;50.968;6.828;2022-11-15T06:24:41;10.80;99.90
21590;DHT22;10957;50.968;6.828;2022-11-15T06:30:00;10.90;99.90
21590;DHT22;10957;50.968;6.828;2022-11-15T06:35:20;10.80;99.90
21590;DHT22;10957;50.968;6.828;2022-11-15T06:40:39;10.40;99.90
21590;DHT22;10957;50.968;6.828;2022-11-15T06:45:59;10.30;99.90
21590;DHT22;10957;50.968;6.828;2022-11-15T06:51:18;10.80;99.90
21590;DHT22;10957;50.968;6.828;2022-11-15T06:56:38;10.60;99.90
21590;DHT22;10957;50.968;6.828;2022-11-15T07:01:57;10.60;99.90
21590;DHT22;10957;50.968;6.828;2022-11-15T07:07:16;10.20;99.90
21590;DHT22;10957;50.968;6.828;2022-11-15T07:12:35;10.50;99.90
21590;DHT22;10957;50.968;6.828;2022-11-15T07:17:54;10.60;99.90
21590;DHT22;10957;50.968;6.828;2022-11-15T07:23:13;10.40;99.90
21590;DHT22;10957;50.968;6.828;2022-11-15T07:28:33;10.40;99.90
21590;DHT22;10957;50.968;6.828;2022-11-15T07:33:52;10.10;99.90
21590;DHT22;10957;50.968;6.828;2022-11-15T07:39:11;10.10;99.90
21590;DHT22;10957;50.968;6.828;2022-11-15T07:44:30;10.20;99.90
21590;DHT22;10957;50.968;6.828;2022-11-15T07:49:50;10.50;99.90
21590;DHT22;10957;50.968;6.828;2022-11-15T07:55:09;10.50;99.90
21590;DHT22;10957;50.968;6.828;2022-11-15T08:00:29;10.30;99.90
21590;DHT22;10957;50.968;6.828;2022-11-15T08:05:51;10.10;99.90
21590;DHT22;10957;50.968;6.828;2022-11-15T08:11:11;10.50;99.90
21590;DHT22;10957;50.968;6.828;2022-11-15T08:16:30;10.20;99.90
21590;DHT22;10957;50.968;6.828;2022-11-15T08:21:49;10.40;99.90
21590;DHT22;10957;50.968;6.828;2022-11-15T08:27:09;10.10;99.90
21590;DHT22;10957;50.968;6.828;2022-11-15T08:32:33;10.60;99.90
21590;DHT22;10957;50.968;6.828;2022-11-15T08:37:53;10.00;99.90
21590;DHT22;10957;50.968;6.828;2022-11-15T08:43:12;10.60;99.90
21590;DHT22;10957;50.968;6.828;2022-11-15T08:48:31;10.50;99.90
21590;DHT22;10957;50.968;6.828;2022-11-15T08:53:51;11.00;99.90
21590;DHT22;10957;50.968;6.828;2022-11-15T08:59:10;10.60;99.90
21590;DHT22;10957;50.968;6.828;2022-11-15T09:04:31;11.00;99.90
21590;DHT22;10957;50.968;6.828;2022-11-15T09:09:51;10.80;99.90
21590;DHT22;10957;50.968;6.828;2022-11-15T09:15:10;10.90;99.90
21590;DHT22;10957;50.968;6.828;2022-11-15T09:20:29;11.30;99.90
21590;DHT22;10957;50.968;6.828;2022-11-15T09:25:48;11.80;99.90
21590;DHT22;10957;50.968;6.828;2022-11-15T09:31:07;11.50;99.90
21590;DHT22;10957;50.968;6.828;2022-11-15T09:36:27;11.50;99.90
21590;DHT22;10957;50.968;6.828;2022-11-15T09:42:25;11.50;99.90
21590;DHT22;10957;50.968;6.828;2022-11-15T09:53:50;11.90;99.90
21590;DHT22;10957;50.968;6.828;2022-11-15T09:59:10;11.70;99.90
21590;DHT22;10957;50.968;6.828;2022-11-15T10:04:14;11.90;97.50
21590;DHT22;10957;50.968;6.828;2022-11-15T10:09:19;11.90;85.90
21590;DHT22;10957;50.968;6.828;2022-11-15T10:14:24;12.60;75.60
21590;DHT22;10957;50.968;6.828;2022-11-15T10:19:37;12.00;84.30
21590;DHT22;10957;50.968;6.828;2022-11-15T10:24:44;12.50;78.90
21590;DHT22;10957;50.968;6.828;2022-11-15T10:29:49;12.60;78.70
21590;DHT22;10957;50.968;6.828;2022-11-15T10:34:50;12.70;58.60
21590;DHT22;10957;50.968;6.828;2022-11-15T10:40:16;12.80;32.90
21590;DHT22;10957;50.968;6.828;2022-11-15T10:45:30;12.90;28.60
21590;DHT22;10957;50.968;6.828;2022-11-15T10:50:32;13.00;20.50
21590;DHT22;10957;50.968;6.828;2022-11-15T10:55:33;12.80;18.10
21590;DHT22;10957;50.968;6.828;2022-11-15T11:00:36;12.90;15.50
21590;DHT22;10957;50.968;6.828;2022-11-15T11:05:40;13.20;10.70
21590;DHT22;10957;50.968;6.828;2022-11-15T11:10:55;12.70;10.30
21590;DHT22;10957;50.968;6.828;2022-11-15T11:32:24;13.30;8.30
21590;DHT22;10957;50.968;6.828;2022-11-15T11:37:35;13.50;9.30
21590;DHT22;10957;50.968;6.828;2022-11-15T11:42:47;13.50;7.80
21590;DHT22;10957;50.968;6.828;2022-11-15T11:48:22;12.90;10.50
21590;DHT22;10957;50.968;6.828;2022-11-15T11:53:29;13.70;8.90
21590;DHT22;10957;50.968;6.828;2022-11-15T11:58:41;13.80;9.90
21590;DHT22;10957;50.968;6.828;2022-11-15T12:09:14;13.90;8.40
21590;DHT22;10957;50.968;6.828;2022-11-15T12:19:52;14.00;7.40
21590;DHT22;10957;50.968;6.828;2022-11-15T12:25:29;13.70;9.40
21590;DHT22;10957;50.968;6.828;2022-11-15T12:30:45;14.10;8.30
21590;DHT22;10957;50.968;6.828;2022-11-15T12:35:58;13.90;10.50
21590;DHT22;10957;50.968;6.828;2022-11-15T12:41:17;13.80;11.10
21590;DHT22;10957;50.968;6.828;2022-11-15T12:56:44;13.70;11.00
21590;DHT22;10957;50.968;6.828;2022-11-15T13:07:13;13.30;13.80
21590;DHT22;10957;50.968;6.828;2022-11-15T13:17:37;14.10;18.00
21590;DHT22;10957;50.968;6.828;2022-11-15T13:28:00;14.00;18.40
21590;DHT22;10957;50.968;6.828;2022-11-15T13:33:13;13.40;20.80
21590;DHT22;10957;50.968;6.828;2022-11-15T13:48:29;13.40;22.00
21590;DHT22;10957;50.968;6.828;2022-11-15T13:53:32;13.30;25.50
21590;DHT22;10957;50.968;6.828;2022-11-15T13:58:37;13.80;25.90
21590;DHT22;10957;50.968;6.828;2022-11-15T14:03:55;14.10;26.10
21590;DHT22;10957;50.968;6.828;2022-11-15T14:19:34;13.80;38.90
21590;DHT22;10957;50.968;6.828;2022-11-15T14:24:35;13.50;48.10
21590;DHT22;10957;50.968;6.828;2022-11-15T14:29:35;13.60;48.10
21590;DHT22;10957;50.968;6.828;2022-11-15T14:34:36;13.10;47.70
21590;DHT22;10957;50.968;6.828;2022-11-15T14:39:37;13.10;51.70
21590;DHT22;10957;50.968;6.828;2022-11-15T14:44:37;13.40;48.70
21590;DHT22;10957;50.968;6.828;2022-11-15T14:49:39;13.80;48.40
21590;DHT22;10957;50.968;6.828;2022-11-15T14:54:39;13.60;50.50
21590;DHT22;10957;50.968;6.828;2022-11-15T14:59:40;13.10;53.60
21590;DHT22;10957;50.968;6.828;2022-11-15T15:04:41;13.30;51.50
21590;DHT22;10957;50.968;6.828;2022-11-15T15:09:42;13.70;55.30
21590;DHT22;10957;50.968;6.828;2022-11-15T15:14:43;13.50;59.20
21590;DHT22;10957;50.968;6.828;2022-11-15T15:19:44;13.50;59.20
21590;DHT22;10957;50.968;6.828;2022-11-15T15:24:45;13.10;60.90
21590;DHT22;10957;50.968;6.828;2022-11-15T15:29:46;13.40;64.80
21590;DHT22;10957;50.968;6.828;2022-11-15T15:34:47;13.20;67.60
21590;DHT22;10957;50.968;6.828;2022-11-15T15:39:48;13.00;66.70
21590;DHT22;10957;50.968;6.828;2022-11-15T15:44:50;13.30;68.00
21590;DHT22;10957;50.968;6.828;2022-11-15T15:49:51;12.80;70.00
21590;DHT22;10957;50.968;6.828;2022-11-15T15:54:52;12.80;69.60
21590;DHT22;10957;50.968;6.828;2022-11-15T15:59:52;13.30;72.60
21590;DHT22;10957;50.968;6.828;2022-11-15T16:04:53;13.10;70.30
21590;DHT22;10957;50.968;6.828;2022-11-15T16:09:54;13.10;69.30
21590;DHT22;10957;50.968;6.828;2022-11-15T16:15:02;13.20;65.50
21590;DHT22;10957;50.968;6.828;2022-11-15T16:20:03;13.20;70.30
21590;DHT22;10957;50.968;6.828;2022-11-15T16:25:04;13.20;76.00
21590;DHT22;10957;50.968;6.828;2022-11-15T16:30:12;13.50;73.30
21590;DHT22;10957;50.968;6.828;2022-11-15T16:35:16;13.20;72.50
21590;DHT22;10957;50.968;6.828;2022-11-15T16:40:28;13.30;75.70
21590;DHT22;10957;50.968;6.828;2022-11-15T16:45:33;13.10;76.00
21590;DHT22;10957;50.968;6.828;2022-11-15T16:50:34;12.90;76.60
21590;DHT22;10957;50.968;6.828;2022-11-15T16:55:41;13.20;83.60
21590;DHT22;10957;50.968;6.828;2022-11-15T17:00:42;13.20;81.00
21590;DHT22;10957;50.968;6.828;2022-11-15T17:05:43;12.80;82.60
21590;DHT22;10957;50.968;6.828;2022-11-15T17:10:43;13.20;81.50
21590;DHT22;10957;50.968;6.828;2022-11-15T17:15:44;13.00;82.90
21590;DHT22;10957;50.968;6.828;2022-11-15T17:20:45;13.00;86.60
21590;DHT22;10957;50.968;6.828;2022-11-15T17:25:45;12.80;89.80
21590;DHT22;10957;50.968;6.828;2022-11-15T17:30:46;12.50;94.50
21590;DHT22;10957;50.968;6.828;2022-11-15T17:35:54;12.60;99.90
21590;DHT22;10957;50.968;6.828;2022-11-15T17:41:06;12.40;99.90
21590;DHT22;10957;50.968;6.828;2022-11-15T17:46:18;12.30;99.90
21590;DHT22;10957;50.968;6.828;2022-11-15T17:51:19;12.80;99.90
21590;DHT22;10957;50.968;6.828;2022-11-15T17:56:25;12.20;99.90
21590;DHT22;10957;50.968;6.828;2022-11-15T18:01:31;12.50;99.90
21590;DHT22;10957;50.968;6.828;2022-11-15T18:06:33;12.50;99.90
21590;DHT22;10957;50.968;6.828;2022-11-15T18:11:37;12.10;99.90
21590;DHT22;10957;50.968;6.828;2022-11-15T18:16:38;12.10;99.90
21590;DHT22;10957;50.968;6.828;2022-11-15T18:21:41;12.20;99.90
21590;DHT22;10957;50.968;6.828;2022-11-15T18:26:59;12.10;99.90
21590;DHT22;10957;50.968;6.828;2022-11-15T18:32:00;11.80;99.90
21590;DHT22;10957;50.968;6.828;2022-11-15T18:37:04;12.00;99.90
21590;DHT22;10957;50.968;6.828;2022-11-15T18:42:05;11.80;99.90
21590;DHT22;10957;50.968;6.828;2022-11-15T18:47:05;11.70;99.90
21590;DHT22;10957;50.968;6.828;2022-11-15T18:52:06;12.20;99.90
21590;DHT22;10957;50.968;6.828;2022-11-15T18:57:07;11.90;99.90
21590;DHT22;10957;50.968;6.828;2022-11-15T19:02:10;12.10;99.90
21590;DHT22;10957;50.968;6.828;2022-11-15T19:07:12;12.40;99.90
21590;DHT22;10957;50.968;6.828;2022-11-15T19:12:12;12.20;99.90
21590;DHT22;10957;50.968;6.828;2022-11-15T19:17:13;12.10;99.90
21590;DHT22;10957;50.968;6.828;2022-11-15T19:22:14;12.20;99.90
21590;DHT22;10957;50.968;6.828;2022-11-15T19:27:14;12.20;99.90
21590;DHT22;10957;50.968;6.828;2022-11-15T19:32:15;12.30;99.90
21590;DHT22;10957;50.968;6.828;2022-11-15T19:37:16;12.20;99.90
21590;DHT22;10957;50.968;6.828;2022-11-15T19:42:17;12.30;99.90
21590;DHT22;10957;50.968;6.828;2022-11-15T19:47:17;12.20;99.90
21590;DHT22;10957;50.968;6.828;2022-11-15T19:52:18;12.30;99.90
21590;DHT22;10957;50.968;6.828;2022-11-15T19:57:20;12.10;99.90
21590;DHT22;10957;50.968;6.828;2022-11-15T20:02:20;12.30;99.90
21590;DHT22;10957;50.968;6.828;2022-11-15T20:07:21;12.30;99.90
21590;DHT22;10957;50.968;6.828;2022-11-15T20:12:22;12.10;99.90
21590;DHT22;10957;50.968;6.828;2022-11-15T20:17:22;12.30;99.90
21590;DHT22;10957;50.968;6.828;2022-11-15T20:22:24;12.10;99.90
21590;DHT22;10957;50.968;6.828;2022-11-15T20:27:25;11.80;99.90
21590;DHT22;10957;50.968;6.828;2022-11-15T20:32:25;12.20;99.90
21590;DHT22;10957;50.968;6.828;2022-11-15T20:37:27;12.20;99.90
21590;DHT22;10957;50.968;6.828;2022-11-15T20:42:28;12.30;99.90
21590;DHT22;10957;50.968;6.828;2022-11-15T20:47:31;11.70;99.90
21590;DHT22;10957;50.968;6.828;2022-11-15T20:52:32;12.30;99.90
21590;DHT22;10957;50.968;6.828;2022-11-15T20:57:33;12.30;99.90
21590;DHT22;10957;50.968;6.828;2022-11-15T21:02:34;12.40;99.90
21590;DHT22;10957;50.968;6.828;2022-11-15T21:07:35;12.40;99.90
21590;DHT22;10957;50.968;6.828;2022-11-15T21:12:35;12.30;99.90
21590;DHT22;10957;50.968;6.828;2022-11-15T21:17:36;12.10;99.90
21590;DHT22;10957;50.968;6.828;2022-11-15T21:22:37;12.30;99.90
21590;DHT22;10957;50.968;6.828;2022-11-15T21:27:37;12.30;99.90
21590;DHT22;10957;50.968;6.828;2022-11-15T21:32:38;11.90;99.90
21590;DHT22;10957;50.968;6.828;2022-11-15T21:37:39;12.30;99.90
21590;DHT22;10957;50.968;6.828;2022-11-15T21:42:40;11.90;99.90
21590;DHT22;10957;50.968;6.828;2022-11-15T21:47:41;12.40;99.90
21590;DHT22;10957;50.968;6.828;2022-11-15T21:52:41;11.90;99.90
21590;DHT22;10957;50.968;6.828;2022-11-15T21:57:42;11.90;99.90
21590;DHT22;10957;50.968;6.828;2022-11-15T22:02:43;12.00;99.90
21590;DHT22;10957;50.968;6.828;2022-11-15T22:07:43;12.30;99.90
21590;DHT22;10957;50.968;6.828;2022-11-15T22:12:44;12.40;99.90
21590;DHT22;10957;50.968;6.828;2022-11-15T22:17:45;11.80;99.90
21590;DHT22;10957;50.968;6.828;2022-11-15T22:22:58;11.80;99.90
21590;DHT22;10957;50.968;6.828;2022-11-15T22:27:59;12.30;99.90
21590;DHT22;10957;50.968;6.828;2022-11-15T22:33:00;12.30;99.90
21590;DHT22;10957;50.968;6.828;2022-11-15T22:38:01;12.20;99.90
21590;DHT22;10957;50.968;6.828;2022-11-15T22:43:02;12.10;99.90
21590;DHT22;10957;50.968;6.828;2022-11-15T22:48:03;12.30;99.90
21590;DHT22;10957;50.968;6.828;2022-11-15T22:53:03;12.40;99.90
21590;DHT22;10957;50.968;6.828;2022-11-15T22:58:04;12.40;99.90
21590;DHT22;10957;50.968;6.828;2022-11-15T23:03:05;12.50;99.90
21590;DHT22;10957;50.968;6.828;2022-11-15T23:08:06;12.50;99.90
21590;DHT22;10957;50.968;6.828;2022-11-15T23:13:13;11.80;99.90
21590;DHT22;10957;50.968;6.828;2022-11-15T23:18:18;11.90;99.90
21590;DHT22;10957;50.968;6.828;2022-11-15T23:23:19;12.50;99.90
21590;DHT22;10957;50.968;6.828;2022-11-15T23:28:20;12.70;99.90
21590;DHT22;10957;50.968;6.828;2022-11-15T23:33:21;12.30;99.90
21590;DHT22;10957;50.968;6.828;2022-11-15T23:38:40;12.00;99.90
21590;DHT22;10957;50.968;6.828;2022-11-15T23:43:42;12.40;99.90
21590;DHT22;10957;50.968;6.828;2022-11-15T23:48:42;12.50;99.90
21590;DHT22;10957;50.968;6.828;2022-11-15T23:53:43;12.70;99.90
21590;DHT22;10957;50.968;6.828;2022-11-15T23:58:45;12.50;99.90
